Rockaway Beach, New York
Current Conditions -  °F | °C
As of 5:51 AM on Thursday 23 Oct 2014 (Local Time) from KJFK Reporting Station
Light Rain Light Rain  
Wind Chill: 52°   Ceiling: 2500
Heat Index: 52°   Visibility: 10mi
Dew Point: 48°   Wind: 15mph
Humidity: 86%   Direction: 340°NNW
Pressure: 29.69"   Gusts: 25mph
Location:  40.6184°N, 73.8256°W
Report Text: KJFK 230951Z 34013G22KT 10SM -RA FEW015 OVC025 11/09 A2969 RMK AO2 SLP054 P0006 T01110089 $
Loading
Personal Weather Stations






























Interactive Weather Map
Tropical Storm Tracking
New forecast layout! Learn more

10-Day Weather Forecast

Advertisements
Track Severe Weather on mobile